createdAt,value
2023-03-23T16:00:31.798Z,2.03
2023-03-23T16:05:36.133Z,1.83
2023-03-23T16:10:42.814Z,2.05
2023-03-23T16:15:49.281Z,2.00
2023-03-23T16:20:52.605Z,2.15
2023-03-23T16:25:55.877Z,2.30
2023-03-23T16:31:00.724Z,2.13
2023-03-23T16:36:05.038Z,2.28
2023-03-23T16:41:08.992Z,1.95
2023-03-23T16:46:17.602Z,2.05
2023-03-23T16:51:21.382Z,2.28
2023-03-23T16:56:24.895Z,2.72
2023-03-23T17:01:29.672Z,2.63
2023-03-23T17:06:33.032Z,2.90
2023-03-23T17:11:36.365Z,2.55
2023-03-23T17:16:41.185Z,2.50
2023-03-23T17:21:44.941Z,3.05
2023-03-23T17:26:49.445Z,2.80
2023-03-23T17:31:54.709Z,3.22
2023-03-23T17:36:59.564Z,3.83
2023-03-23T17:42:04.100Z,3.65
2023-03-23T17:47:10.340Z,4.10
2023-03-23T17:52:16.994Z,3.85
2023-03-23T17:57:21.107Z,4.82
2023-03-23T18:02:28.128Z,4.18
2023-03-23T18:07:32.859Z,3.47
2023-03-23T18:12:37.732Z,4.00
2023-03-23T18:17:45.721Z,3.42
2023-03-23T18:22:51.164Z,3.72
2023-03-23T18:27:56.758Z,3.90
2023-03-23T18:33:11.376Z,3.30
2023-03-23T18:38:20.323Z,3.92
2023-03-23T18:43:25.278Z,3.97
2023-03-23T18:48:32.365Z,4.20
2023-03-23T18:53:39.357Z,4.03
2023-03-23T18:58:44.492Z,5.45
2023-03-23T19:03:52.100Z,4.75
2023-03-23T19:08:57.507Z,4.20
2023-03-23T19:14:03.552Z,4.70
2023-03-23T19:19:11.125Z,5.53
2023-03-23T19:24:17.012Z,6.43
2023-03-23T19:34:37.268Z,5.45
2023-03-23T19:39:44.807Z,5.65
2023-03-23T19:44:51.308Z,5.25
2023-03-23T19:50:00.963Z,5.28
2023-03-23T19:55:06.776Z,5.43
2023-03-23T20:00:15.281Z,5.50
2023-03-23T20:05:23.396Z,5.53
2023-03-23T20:10:30.066Z,5.00
2023-03-23T20:15:35.798Z,5.32
2023-03-23T20:20:45.577Z,5.65
2023-03-23T20:25:51.770Z,5.00
2023-03-23T20:31:17.026Z,4.93
2023-03-23T20:36:30.638Z,5.85
2023-03-23T20:41:39.263Z,6.18
2023-03-23T20:46:44.398Z,5.45
2023-03-23T20:51:55.268Z,5.03
2023-03-23T20:57:00.040Z,4.50
2023-03-23T21:02:06.018Z,4.75
2023-03-23T21:07:15.073Z,4.38
2023-03-23T21:12:20.878Z,5.35
2023-03-23T21:17:26.196Z,4.25
2023-03-23T21:22:32.502Z,4.25
2023-03-23T21:27:37.400Z,4.13
2023-03-23T21:32:41.579Z,4.57
2023-03-23T21:37:48.702Z,4.57
2023-03-23T21:42:53.329Z,4.45
2023-03-23T21:47:58.193Z,4.32
2023-03-23T21:53:03.389Z,4.38
2023-03-23T21:58:08.053Z,3.90
2023-03-23T22:03:11.420Z,4.80
2023-03-23T22:08:17.335Z,4.40
2023-03-23T22:13:20.695Z,3.88
2023-03-23T22:18:24.020Z,4.32
2023-03-23T22:23:29.098Z,4.38
2023-03-23T22:28:34.157Z,4.30
2023-03-23T22:33:38.647Z,4.13
2023-03-23T22:38:45.611Z,4.00
2023-03-23T22:43:49.521Z,4.20
2023-03-23T22:48:52.871Z,3.90
2023-03-23T22:53:57.718Z,4.18
2023-03-23T22:59:02.089Z,4.07
2023-03-23T23:04:06.473Z,4.35
2023-03-23T23:09:11.608Z,3.90
2023-03-23T23:14:14.955Z,4.50
2023-03-23T23:19:18.345Z,4.38
2023-03-23T23:24:23.220Z,4.50
2023-03-23T23:29:26.912Z,3.97
2023-03-23T23:34:30.422Z,4.43
2023-03-23T23:39:38.269Z,4.18
2023-03-23T23:44:43.340Z,4.00
2023-03-23T23:49:46.720Z,4.60
2023-03-23T23:54:52.667Z,5.13
2023-03-23T23:59:56.166Z,4.65
